Bijsk Zonal'Naja, Russia
Current Conditions -  °F | °C
As of 2:00 AM on Tuesday 23 Dec 2014 (Local Time) from UNBB Reporting Station
Clear Clear  
Wind Chill: 15°   Ceiling: Unl
Heat Index: 23°   Visibility: 6mi
Dew Point: 12°   Wind: 7mph
Humidity: 63%   Direction: 180°S
Pressure: 30.27"   Gusts: NA
Location:  52.68°N, 84.95°E
Report Text: UNBB 221900Z 18003MPS CAVOK M05/M11 Q1025 NOSIG RMK QFE746/099524800560
Loading
Personal Weather Stations






























Interactive Weather Map New forecast layout! Learn more

10-Day Weather Forecast

Advertisements
Track Severe Weather on mobile